Hovedside
METAR-TAF:

METAR-TAF

Lufthavner :

RAF

Holbeach, England

breddegrad: 52-52N, lengdegrad: 000-09E, høyde over havet: 3 m

Gjeldene værobservasjon

Denne rapporten ble laget for 37 minutter siden, klokken 14:50 UTC
Vind 11 kt fra Sørvest
Temperatur 26°C
Luftfuktighet 54%
Trykk 1019 hPa
Sikt 10 km eller mer

METAR: EGYH 181450Z AUTO 22011KT 9999 FEW048/// BKN130/// 26/16 Q1019

Tid: 16:27 (15:27 UTC)


TAF: fraværende

Værobservasjoner og værvarsel for over 4000 flyplasser (METAR- og TAF-rapporter).

Tilgjengelige stasjoner er representert av de røde og gule prikkene på kartet.

Hold musepekeren over prikken for å se navnet på stasjonen.

Klikk så for å se værobservasjoner og -varsler.

For å forandre kartet kan du klikke på den grønne knappen med svart kryss for å zoome inn, på den grønne knappen med strek for å zoome ut, eller på de grønne pilene for å se tilstøtende kart.


METAR-TAF: